Other Surface Observations
Issued by NWS Great Falls, MT

Home | Current Version | Previous Version | Text Only | Print | Product List | Glossary On
Versions: 1 2 3 4 5 6 7 8 9 10 11 12 13 14 15 16 17 18 19 20 21 22 23 24 25 26 27 28 29 30 31 32 33 34 35 36 37 38 39 40 41 42 43 44 45 46 47 48 49 50
337
SXUS55 KTFX 171414
OSOTFX
AREA AWOS OBSERVATIONS
NATIONAL WEATHER SERVICE GREAT FALLS MT
0714 AM MST SUN DEC 17 2017

METAR KPWD 171415Z AUTO 00000KT 10SM M10/M11 A2987 RMK PLENTYWOOD
METAR KPO1 171415Z AUTO 13005KT 10SM M07/M09 A2991 RMK POPLAR
METAR K1S3 171415Z AUTO 17004KT M04/M04 A2991 RMK FORSYTH
METAR KS71 171415Z AUTO 00000KT 10SM M02/M08 A2978 RMK CHINOOK
METAR K38S 171415Z AUTO 00000KT 10SM M11/M12 A3009 RMK DEER LODGE
METAR K3U3 171415Z AUTO 20004KT 10SM M05/M13 A3003 RMK ANACONDA
METAR K6S5 171415Z AUTO 18011KT 10SM M06/M11 A3013 RMK HAMILTON
METAR KS59 171415Z AUTO 00000KT 10SM M05/M06 A3009 RMK LIBBY
METAR K88M 171415Z AUTO 10SM M02/M07 A3007 RMK EUREKA



USA.gov is the U.S. government's official web portal to all federal, state and local government web resources and services.